createdAt,value
2022-08-18T00:02:28.727Z,30.60
2022-08-18T00:04:57.426Z,32.97
2022-08-18T00:07:27.925Z,30.40
2022-08-18T00:09:55.059Z,34.60
2022-08-18T00:12:27.154Z,32.30
2022-08-18T00:14:54.972Z,34.77
2022-08-18T00:17:22.565Z,37.67
2022-08-18T00:19:49.884Z,35.80
2022-08-18T00:22:19.899Z,33.20
2022-08-18T00:24:50.244Z,32.17
2022-08-18T00:27:23.307Z,32.13
2022-08-18T00:29:52.003Z,33.10
2022-08-18T00:32:26.452Z,39.10
2022-08-18T00:42:30.270Z,32.73
2022-08-18T00:45:01.264Z,32.73
2022-08-18T00:47:42.855Z,31.10
2022-08-18T00:50:15.505Z,35.50
2022-08-18T00:52:49.916Z,36.60
2022-08-18T00:55:18.247Z,34.80
2022-08-18T00:57:48.511Z,35.33
2022-08-18T01:00:15.436Z,32.80
2022-08-18T01:02:47.737Z,33.10
2022-08-18T01:05:22.494Z,32.13
2022-08-18T01:07:51.365Z,36.90
2022-08-18T01:10:21.718Z,34.50
2022-08-18T01:12:56.736Z,35.47
2022-08-18T01:15:28.093Z,36.10
2022-08-18T01:18:21.727Z,36.70
2022-08-18T01:21:21.371Z,33.37
2022-08-18T01:23:48.751Z,36.40
2022-08-18T01:26:17.835Z,35.87
2022-08-18T01:28:46.533Z,38.93
2022-08-18T01:31:29.695Z,36.90
2022-08-18T01:33:57.279Z,36.70
2022-08-18T01:36:23.862Z,35.40
2022-08-18T01:38:52.965Z,39.43
2022-08-18T01:41:29.827Z,36.47
2022-08-18T01:43:59.620Z,37.50
2022-08-18T01:46:28.080Z,42.70
2022-08-18T01:48:58.629Z,42.40
2022-08-18T01:51:36.265Z,40.73
2022-08-18T01:54:05.964Z,45.67
2022-08-18T01:56:32.493Z,41.00
2022-08-18T01:58:59.082Z,40.87
2022-08-18T02:01:36.526Z,38.50
2022-08-18T02:04:31.614Z,36.63
2022-08-18T02:06:53.770Z,41.67
2022-08-18T02:09:23.732Z,42.73
2022-08-18T02:11:51.100Z,42.17
2022-08-18T02:14:20.260Z,44.40
2022-08-18T02:16:55.592Z,46.90
2022-08-18T02:19:28.274Z,49.60
2022-08-18T02:21:54.808Z,46.77
2022-08-18T02:24:21.370Z,47.33
2022-08-18T02:26:47.868Z,41.87
2022-08-18T02:29:14.359Z,43.60
2022-08-18T02:31:40.848Z,47.67
2022-08-18T02:34:07.329Z,50.93
2022-08-18T02:36:33.816Z,49.77
2022-08-18T02:39:00.364Z,48.33
2022-08-18T02:41:29.569Z,44.60
2022-08-18T02:43:57.029Z,40.60
2022-08-18T02:46:23.666Z,45.37
2022-08-18T02:48:56.780Z,45.23
2022-08-18T02:51:23.382Z,39.60
2022-08-18T02:53:53.791Z,38.90
2022-08-18T02:56:33.733Z,44.17
2022-08-18T02:59:10.497Z,40.00
2022-08-18T03:01:39.946Z,46.87
2022-08-18T03:04:08.625Z,43.40
2022-08-18T03:06:37.171Z,43.87
2022-08-18T03:09:08.609Z,48.03
2022-08-18T03:11:36.088Z,44.33
2022-08-18T03:14:05.311Z,47.67
2022-08-18T03:16:33.284Z,45.20
2022-08-18T03:19:03.800Z,44.67
2022-08-18T03:21:35.695Z,53.43
2022-08-18T03:24:10.608Z,63.93
2022-08-18T03:26:42.004Z,59.77
2022-08-18T03:29:09.606Z,64.23
2022-08-18T03:31:38.080Z,64.50
2022-08-18T03:34:07.105Z,58.13
2022-08-18T03:36:35.377Z,66.30
2022-08-18T03:39:04.828Z,66.93
2022-08-18T03:41:57.192Z,65.80
2022-08-18T03:44:17.862Z,60.93
2022-08-18T03:46:45.397Z,53.50
2022-08-18T03:49:13.497Z,67.73
2022-08-18T03:51:43.636Z,69.53
2022-08-18T03:54:11.116Z,69.53
2022-08-18T03:56:39.000Z,70.30
2022-08-18T03:59:12.572Z,67.17
2022-08-18T04:01:41.975Z,71.07
2022-08-18T04:04:15.476Z,68.57
2022-08-18T04:06:50.030Z,73.90
2022-08-18T04:09:17.520Z,64.93
2022-08-18T04:11:45.294Z,67.80
2022-08-18T04:14:14.360Z,63.80
2022-08-18T04:16:41.764Z,61.63
2022-08-18T04:19:09.607Z,63.47
2022-08-18T04:21:39.339Z,60.20
2022-08-18T04:24:07.335Z,61.97
2022-08-18T04:26:36.718Z,64.33
2022-08-18T04:29:05.425Z,62.57
2022-08-18T04:31:32.287Z,61.93
2022-08-18T04:34:01.092Z,62.20
2022-08-18T04:36:28.875Z,63.50
2022-08-18T04:38:56.553Z,66.27
2022-08-18T04:41:30.048Z,59.33
2022-08-18T04:44:02.459Z,57.93
2022-08-18T04:46:29.924Z,53.20
2022-08-18T04:48:59.108Z,63.20
2022-08-18T04:52:26.720Z,60.33
2022-08-18T04:54:16.091Z,54.00
2022-08-18T04:56:42.757Z,53.80
2022-08-18T04:59:12.944Z,53.87
2022-08-18T05:01:48.306Z,55.97
2022-08-18T05:04:16.901Z,55.73
2022-08-18T05:06:44.760Z,56.40
2022-08-18T05:09:13.207Z,56.20
2022-08-18T05:11:44.434Z,55.77
2022-08-18T05:14:11.871Z,56.33
2022-08-18T05:16:48.095Z,49.40
2022-08-18T05:19:21.853Z,54.20
2022-08-18T05:21:53.342Z,54.63
2022-08-18T05:24:28.500Z,52.97
2022-08-18T05:26:57.197Z,48.33
2022-08-18T05:29:23.699Z,50.30
2022-08-18T05:31:53.066Z,49.00
2022-08-18T05:34:22.291Z,50.97
2022-08-18T05:36:48.701Z,50.80
2022-08-18T05:39:22.736Z,53.80
2022-08-18T05:41:51.235Z,51.43
2022-08-18T05:44:24.545Z,51.87
2022-08-18T05:46:56.467Z,53.60
2022-08-18T05:49:25.874Z,52.07
2022-08-18T05:51:57.640Z,51.70
2022-08-18T05:54:44.742Z,52.50
2022-08-18T05:57:18.929Z,53.50
2022-08-18T05:59:48.088Z,53.10
2022-08-18T06:02:32.263Z,63.70
2022-08-18T06:05:12.166Z,58.87
2022-08-18T06:07:54.439Z,50.20
2022-08-18T06:10:21.773Z,54.33
2022-08-18T06:12:52.088Z,51.03
2022-08-18T06:15:40.336Z,49.17
2022-08-18T06:18:18.911Z,49.20
2022-08-18T06:21:25.449Z,56.63
2022-08-18T06:24:05.058Z,51.00
2022-08-18T06:27:06.138Z,52.93
2022-08-18T06:29:51.275Z,55.00
2022-08-18T06:32:34.245Z,51.03
2022-08-18T06:35:28.408Z,54.13
2022-08-18T06:38:31.797Z,56.00
2022-08-18T06:41:08.500Z,61.93
2022-08-18T06:43:38.765Z,58.47
2022-08-18T06:46:21.949Z,56.23
2022-08-18T06:48:56.077Z,63.57
2022-08-18T06:51:27.581Z,70.00
2022-08-18T06:54:03.872Z,67.70
2022-08-18T06:56:48.887Z,71.90
2022-08-18T06:59:32.095Z,63.00
2022-08-18T07:02:19.623Z,67.43
2022-08-18T07:05:19.149Z,63.90
2022-08-18T07:07:46.895Z,62.77
2022-08-18T07:10:16.317Z,73.03
2022-08-18T07:12:42.798Z,66.87
2022-08-18T07:15:12.463Z,66.30
2022-08-18T07:17:51.465Z,68.77
2022-08-18T07:20:24.598Z,73.97
2022-08-18T07:22:55.159Z,65.70
2022-08-18T07:25:29.517Z,64.30
2022-08-18T07:27:56.733Z,64.73
2022-08-18T07:30:23.838Z,63.50
2022-08-18T07:33:13.838Z,64.60
2022-08-18T07:35:49.486Z,64.07
2022-08-18T07:38:42.722Z,69.63
2022-08-18T07:41:39.574Z,70.13
2022-08-18T07:44:18.345Z,70.17
2022-08-18T07:47:06.794Z,62.63
2022-08-18T07:49:36.420Z,66.93
2022-08-18T07:52:36.421Z,57.50
2022-08-18T07:55:15.779Z,68.60
2022-08-18T07:57:57.173Z,67.43
2022-08-18T08:00:58.028Z,63.17
2022-08-18T08:03:56.123Z,68.67
2022-08-18T08:06:31.155Z,69.43
2022-08-18T08:09:00.685Z,64.63
2022-08-18T08:11:48.592Z,64.40
2022-08-18T08:14:35.603Z,60.93
2022-08-18T08:17:28.932Z,63.17
2022-08-18T08:20:33.147Z,60.57
2022-08-18T08:23:09.377Z,57.90
2022-08-18T08:26:13.603Z,57.47
2022-08-18T08:29:06.296Z,58.47
2022-08-18T08:31:45.749Z,55.80
2022-08-18T08:34:12.168Z,58.80
2022-08-18T08:36:45.808Z,64.50
2022-08-18T08:39:26.478Z,62.97
2022-08-18T08:42:29.196Z,53.13
2022-08-18T08:44:59.926Z,65.73
2022-08-18T08:47:34.704Z,54.57
2022-08-18T08:50:13.166Z,51.40
2022-08-18T08:53:11.917Z,51.10
2022-08-18T08:55:47.284Z,50.47
2022-08-18T08:58:26.068Z,48.07
2022-08-18T09:00:55.057Z,47.83
2022-08-18T09:03:45.442Z,44.33
2022-08-18T09:06:30.308Z,46.77
2022-08-18T09:09:26.247Z,49.30
2022-08-18T09:12:04.796Z,49.00
2022-08-18T09:14:51.689Z,40.00
2022-08-18T09:17:38.105Z,40.80
2022-08-18T09:20:49.793Z,46.37
2022-08-18T09:23:24.708Z,41.27
2022-08-18T09:25:56.774Z,37.67
2022-08-18T09:28:56.204Z,39.93
2022-08-18T09:31:23.957Z,41.30
2022-08-18T09:34:15.709Z,40.67
2022-08-18T09:36:45.167Z,39.93
2022-08-18T09:39:53.912Z,46.37
2022-08-18T09:42:59.825Z,38.90
2022-08-18T09:45:33.708Z,41.40
2022-08-18T09:48:12.857Z,44.20
2022-08-18T09:50:57.204Z,44.93
2022-08-18T09:53:48.244Z,45.43
2022-08-18T10:01:52.647Z,48.73
2022-08-18T10:04:35.723Z,45.27
2022-08-18T10:07:38.932Z,47.80
2022-08-18T10:13:25.114Z,43.10
2022-08-18T10:16:10.657Z,50.73
2022-08-18T10:19:17.512Z,37.53
2022-08-18T10:21:56.154Z,39.87
2022-08-18T10:24:38.026Z,38.67
2022-08-18T10:27:29.381Z,43.07
2022-08-18T10:29:57.786Z,39.33
2022-08-18T10:32:38.151Z,37.50
2022-08-18T10:35:06.248Z,33.90
2022-08-18T10:37:43.506Z,36.27
2022-08-18T10:40:10.075Z,40.77
2022-08-18T10:43:01.363Z,35.07
2022-08-18T10:45:59.369Z,35.67
2022-08-18T10:48:34.506Z,34.40
2022-08-18T10:54:23.349Z,31.23
2022-08-18T10:56:57.544Z,31.13
2022-08-18T10:59:54.668Z,27.17
2022-08-18T11:02:21.235Z,29.13
2022-08-18T11:04:58.583Z,32.27
2022-08-18T11:13:10.995Z,25.63
2022-08-18T11:15:59.940Z,28.17
2022-08-18T11:18:32.693Z,26.80
2022-08-18T11:21:22.634Z,29.93
2022-08-18T11:24:32.264Z,30.23
2022-08-18T11:27:15.242Z,33.07
2022-08-18T11:29:43.069Z,30.30
2022-08-18T11:32:32.795Z,29.23
2022-08-18T11:35:16.198Z,27.13
2022-08-18T11:37:53.459Z,32.43
2022-08-18T11:41:02.426Z,30.40
2022-08-18T11:43:13.227Z,26.90
2022-08-18T11:45:55.780Z,27.40
2022-08-18T11:48:39.100Z,27.30
2022-08-18T11:51:28.487Z,28.33
2022-08-18T11:54:02.552Z,32.70
2022-08-18T11:56:35.888Z,29.87
2022-08-18T11:59:09.298Z,30.20
2022-08-18T12:01:51.331Z,28.27
2022-08-18T12:04:38.434Z,31.20
2022-08-18T12:07:09.784Z,31.03
2022-08-18T12:10:16.789Z,33.23
2022-08-18T12:12:34.940Z,30.00
2022-08-18T12:15:24.001Z,27.97
2022-08-18T12:17:53.671Z,28.00
2022-08-18T12:20:21.924Z,32.23
2022-08-18T12:22:49.937Z,34.10
2022-08-18T12:25:25.024Z,29.27
2022-08-18T12:27:53.389Z,31.60
2022-08-18T12:30:20.102Z,26.97
2022-08-18T12:32:50.723Z,29.00
2022-08-18T12:35:22.635Z,32.40
2022-08-18T12:38:12.940Z,28.87
2022-08-18T12:40:36.386Z,34.33
2022-08-18T12:43:03.153Z,26.43
2022-08-18T12:45:32.728Z,29.20
2022-08-18T12:48:02.414Z,31.90
2022-08-18T12:50:36.151Z,28.23
2022-08-18T12:53:05.090Z,28.40
2022-08-18T12:58:23.440Z,29.17
2022-08-18T13:00:51.465Z,33.37
2022-08-18T13:03:19.194Z,28.53
2022-08-18T13:05:45.757Z,34.13
2022-08-18T13:08:30.676Z,27.23
2022-08-18T13:11:15.168Z,28.93
2022-08-18T13:13:53.177Z,24.80
2022-08-18T13:16:38.606Z,25.90
2022-08-18T13:19:07.214Z,27.93
2022-08-18T13:21:41.029Z,29.47
2022-08-18T13:24:09.409Z,26.00
2022-08-18T13:26:39.985Z,25.63
2022-08-18T13:29:10.175Z,29.17
2022-08-18T13:31:38.027Z,27.67
2022-08-18T13:34:11.887Z,31.90
2022-08-18T13:36:46.059Z,36.13
2022-08-18T13:39:18.916Z,34.80
2022-08-18T13:41:47.594Z,32.20
2022-08-18T13:44:18.751Z,32.20
2022-08-18T13:46:47.352Z,33.60
2022-08-18T13:49:18.580Z,32.20
2022-08-18T13:52:00.758Z,33.70
2022-08-18T13:54:35.248Z,29.87
2022-08-18T13:57:03.141Z,29.30
2022-08-18T13:59:33.212Z,31.53
2022-08-18T14:02:05.834Z,28.13
2022-08-18T14:04:36.201Z,27.67
2022-08-18T14:07:07.292Z,25.53
2022-08-18T14:09:38.029Z,28.33
2022-08-18T14:12:15.765Z,29.00
2022-08-18T14:14:51.899Z,29.27
2022-08-18T14:17:19.792Z,33.20
2022-08-18T14:20:10.328Z,29.00
2022-08-18T14:22:55.916Z,29.70
2022-08-18T14:25:41.181Z,31.63
2022-08-18T14:28:09.235Z,28.90
2022-08-18T14:30:39.392Z,31.47
2022-08-18T14:33:07.771Z,29.17
2022-08-18T14:36:06.475Z,29.10
2022-08-18T14:38:24.832Z,27.57
2022-08-18T14:40:51.671Z,25.67
2022-08-18T14:43:24.994Z,26.37
2022-08-18T14:45:53.696Z,27.20
2022-08-18T14:48:27.303Z,25.73
2022-08-18T14:50:56.136Z,26.87
2022-08-18T14:53:26.995Z,26.17
2022-08-18T14:55:54.930Z,26.53
2022-08-18T14:58:27.808Z,24.20
2022-08-18T15:00:56.749Z,22.57
2022-08-18T15:03:28.315Z,22.53
2022-08-18T15:06:00.495Z,21.93
2022-08-18T15:08:27.689Z,20.03
2022-08-18T15:10:56.210Z,24.60
2022-08-18T15:13:26.518Z,26.10
2022-08-18T15:15:55.808Z,31.13
2022-08-18T15:18:29.552Z,28.67
2022-08-18T15:21:34.886Z,17.80
2022-08-18T15:24:22.243Z,18.63
2022-08-18T15:26:58.246Z,20.07
2022-08-18T15:29:29.848Z,17.33
2022-08-18T15:32:01.934Z,17.00
2022-08-18T15:34:30.071Z,25.10
2022-08-18T15:36:57.407Z,17.40
2022-08-18T15:39:36.385Z,14.90
2022-08-18T15:42:10.235Z,19.90
2022-08-18T15:44:37.122Z,17.70
2022-08-18T15:47:05.849Z,15.07
2022-08-18T15:49:36.040Z,14.10
2022-08-18T15:52:02.732Z,15.57
2022-08-18T15:54:29.296Z,13.80
2022-08-18T15:56:58.269Z,14.10
2022-08-18T15:59:27.059Z,13.87
2022-08-18T16:02:02.113Z,18.87
2022-08-18T16:04:28.656Z,13.70
2022-08-18T16:06:56.057Z,12.67
2022-08-18T16:09:22.685Z,16.63
2022-08-18T16:11:49.235Z,13.47
2022-08-18T16:14:15.699Z,13.37
2022-08-18T16:16:42.185Z,13.90
2022-08-18T16:19:08.670Z,12.63
2022-08-18T16:21:39.563Z,11.97
2022-08-18T16:24:07.242Z,12.30
2022-08-18T16:26:33.952Z,14.97
2022-08-18T16:29:02.015Z,13.47
2022-08-18T16:31:29.370Z,17.93
2022-08-18T16:33:58.009Z,14.30
2022-08-18T16:36:25.720Z,12.13
2022-08-18T16:38:53.612Z,17.57
2022-08-18T16:41:20.894Z,12.00
2022-08-18T16:43:47.600Z,12.70
2022-08-18T16:46:18.472Z,13.73
2022-08-18T16:48:45.860Z,11.50
2022-08-18T16:51:14.323Z,13.73
2022-08-18T16:53:41.019Z,14.10
2022-08-18T16:56:12.888Z,16.90
2022-08-18T16:58:57.936Z,11.90
2022-08-18T17:01:49.075Z,14.30
2022-08-18T17:04:20.632Z,15.17
2022-08-18T17:06:47.943Z,14.63
2022-08-18T17:09:15.358Z,12.03
2022-08-18T17:11:48.189Z,16.73
2022-08-18T17:14:20.665Z,11.93
2022-08-18T17:16:49.611Z,11.90
2022-08-18T17:19:18.958Z,43.63
2022-08-18T17:21:45.907Z,18.50
2022-08-18T17:24:12.548Z,13.43
2022-08-18T17:26:44.514Z,12.07
2022-08-18T17:29:25.712Z,11.20
2022-08-18T17:32:04.598Z,14.07
2022-08-18T17:34:39.450Z,11.50
2022-08-18T17:37:10.509Z,10.60
2022-08-18T17:39:51.344Z,11.17
2022-08-18T17:42:26.900Z,10.73
2022-08-18T17:44:59.064Z,13.10
2022-08-18T17:47:33.359Z,11.70
2022-08-18T17:50:27.883Z,11.60
2022-08-18T17:53:05.338Z,16.27
2022-08-18T17:55:39.354Z,25.33
2022-08-18T17:58:25.337Z,14.47
2022-08-18T18:00:52.530Z,20.37
2022-08-18T18:03:19.250Z,13.93
2022-08-18T18:05:51.807Z,12.80
2022-08-18T18:08:18.444Z,11.70
2022-08-18T18:11:04.348Z,12.27
2022-08-18T18:13:34.787Z,23.03
2022-08-18T18:16:21.095Z,14.50
2022-08-18T18:19:00.891Z,12.80
2022-08-18T18:21:55.283Z,12.23
2022-08-18T18:24:15.466Z,17.90
2022-08-18T18:26:48.109Z,11.40
2022-08-18T18:29:37.720Z,20.53
2022-08-18T18:32:38.865Z,11.10
2022-08-18T18:35:13.511Z,12.27
2022-08-18T18:37:52.815Z,17.83
2022-08-18T18:40:27.444Z,13.90
2022-08-18T18:42:55.707Z,17.20
2022-08-18T18:45:28.629Z,12.50
2022-08-18T18:48:38.679Z,43.80
2022-08-18T18:51:19.313Z,70.10
2022-08-18T18:54:15.477Z,18.33
2022-08-18T18:56:56.555Z,15.93
2022-08-18T18:59:52.897Z,15.40
2022-08-18T19:02:34.739Z,12.73
2022-08-18T19:05:30.971Z,11.40
2022-08-18T19:08:17.219Z,16.40
2022-08-18T19:10:59.446Z,14.90
2022-08-18T19:13:34.944Z,15.17
2022-08-18T19:16:24.714Z,22.77
2022-08-18T19:18:59.766Z,17.80
2022-08-18T19:22:03.382Z,14.10
2022-08-18T19:24:37.527Z,14.17
2022-08-18T19:27:06.750Z,15.10
2022-08-18T19:29:40.628Z,36.97
2022-08-18T19:32:16.641Z,20.53
2022-08-18T19:34:52.836Z,16.33
2022-08-18T19:37:56.317Z,15.83
2022-08-18T19:40:29.262Z,14.97
2022-08-18T19:43:23.663Z,16.93
2022-08-18T19:45:59.306Z,17.33
2022-08-18T19:48:34.807Z,16.57
2022-08-18T19:51:08.107Z,14.40
2022-08-18T19:53:53.396Z,16.93
2022-08-18T19:56:50.935Z,13.30
2022-08-18T19:59:23.376Z,15.63
2022-08-18T20:01:52.128Z,16.27
2022-08-18T20:04:49.198Z,12.57
2022-08-18T20:07:37.911Z,17.27
2022-08-18T20:10:25.766Z,33.40
2022-08-18T20:13:11.697Z,22.20
2022-08-18T20:16:10.856Z,17.30
2022-08-18T20:18:43.596Z,42.67
2022-08-18T20:21:16.516Z,46.57
2022-08-18T20:24:08.525Z,21.73
2022-08-18T20:26:35.058Z,40.63
2022-08-18T20:29:02.248Z,33.10
2022-08-18T20:31:45.104Z,17.03
2022-08-18T20:34:14.693Z,14.80
2022-08-18T20:36:43.699Z,13.93
2022-08-18T20:39:32.126Z,15.93
2022-08-18T20:42:01.114Z,17.07
2022-08-18T20:44:29.559Z,20.70
2022-08-18T20:47:24.318Z,44.00
2022-08-18T20:50:12.872Z,20.83
2022-08-18T20:53:00.370Z,14.37
2022-08-18T20:55:42.013Z,14.23
2022-08-18T20:58:20.880Z,15.33
2022-08-18T21:00:57.304Z,14.20
2022-08-18T21:03:35.619Z,12.30
2022-08-18T21:06:02.926Z,16.80
2022-08-18T21:08:32.931Z,13.93
2022-08-18T21:11:02.942Z,17.00
2022-08-18T21:13:31.506Z,16.17
2022-08-18T21:15:58.300Z,13.70
2022-08-18T21:18:26.097Z,16.53
2022-08-18T21:20:56.076Z,15.40
2022-08-18T21:23:29.799Z,15.13
2022-08-18T21:26:02.811Z,12.50
2022-08-18T21:28:36.183Z,13.23
2022-08-18T21:31:28.971Z,13.37
2022-08-18T21:34:00.508Z,14.53
2022-08-18T21:36:32.392Z,13.87
2022-08-18T21:39:06.682Z,12.40
2022-08-18T21:41:39.293Z,15.77
2022-08-18T21:44:21.879Z,15.60
2022-08-18T21:46:48.832Z,13.30
2022-08-18T21:49:28.184Z,41.20
2022-08-18T21:51:54.740Z,30.50
2022-08-18T21:54:24.737Z,21.93
2022-08-18T21:57:27.374Z,21.10
2022-08-18T22:00:17.208Z,16.60
2022-08-18T22:02:45.296Z,24.83
2022-08-18T22:05:12.478Z,15.57
2022-08-18T22:07:48.605Z,13.37
2022-08-18T22:10:44.363Z,13.63
2022-08-18T22:13:42.054Z,13.27
2022-08-18T22:16:36.546Z,30.73
2022-08-18T22:19:19.110Z,14.03
2022-08-18T22:21:49.894Z,22.70
2022-08-18T22:24:19.722Z,13.00
2022-08-18T22:27:04.356Z,13.17
2022-08-18T22:29:45.819Z,13.17
2022-08-18T22:32:13.603Z,11.73
2022-08-18T22:34:40.620Z,11.70
2022-08-18T22:37:15.236Z,13.40
2022-08-18T22:40:02.069Z,12.63
2022-08-18T22:42:32.879Z,14.00
2022-08-18T22:45:04.891Z,14.00
2022-08-18T22:47:43.260Z,13.27
2022-08-18T22:50:13.068Z,13.37
2022-08-18T22:52:48.202Z,14.03
2022-08-18T22:55:20.212Z,12.77
2022-08-18T22:57:50.972Z,13.30
2022-08-18T23:00:22.888Z,14.17
2022-08-18T23:02:49.932Z,14.30
2022-08-18T23:05:16.604Z,13.37
2022-08-18T23:07:43.079Z,15.77
2022-08-18T23:10:13.664Z,11.73
2022-08-18T23:12:43.114Z,12.83
2022-08-18T23:15:13.006Z,14.43
2022-08-18T23:17:41.068Z,12.00
2022-08-18T23:20:17.679Z,12.90
2022-08-18T23:22:45.502Z,15.23
2022-08-18T23:25:13.353Z,13.10
2022-08-18T23:27:40.856Z,14.13
2022-08-18T23:30:07.963Z,18.47
2022-08-18T23:32:34.441Z,15.27
2022-08-18T23:35:00.961Z,12.73
2022-08-18T23:37:27.543Z,11.77
2022-08-18T23:39:54.025Z,13.30
2022-08-18T23:42:22.967Z,11.90
2022-08-18T23:44:49.880Z,12.07
2022-08-18T23:47:18.477Z,14.60
2022-08-18T23:49:44.945Z,14.20
2022-08-18T23:52:11.476Z,14.43
2022-08-18T23:54:38.905Z,13.60
2022-08-18T23:57:05.675Z,15.30
2022-08-18T23:59:32.188Z,14.43
